Portada
METAR-TAF:

METAR-TAF

Aeroports :

Aeroport Internacional de Phu Quoc

Phu Quoc, Vietnam

latitud: 10-10-18N, longitud: 103-59-28E, altitud: 11 m

Observació

L'informe es va fer fa 26 minuts, a les 02:30 UTC
Vent 6 kt del Nord-Est
Temperatura 26°C
Humitat 65%
Pressió 1014 hPa
Visibilitat 10 km o més
Escasses núvols a una alçada de 2000 ft

METAR: VVPQ 130230Z 04006KT 9999 FEW020 26/19 Q1014 NOSIG

Hora: 09:56 (02:56 UTC)

Pronòstic

L'informe es va fer fa 3 hores i 56 minuts, a les 23:00 UTC
Pronòstic vàlid del 13 a les 00 UTC al 13 a les 24 UTC
Vent 2 kt amb direcció variable
Visibilitat 10 km o més
Núvols disperses a una alçada de 1700 ft
Núvols disperses a una alçada de 4000 ft
Evolucionant progressivament
l' 13 a les 04 UTC al 13 a les 05 UTC
Vent 10 kt del Est

TAF: VVPQ 122300Z 1300/1324 VRB02KT 9999 SCT017 SCT040 BECMG 1304/1305 10010KT

Observacions i pronòstics meteorològics de més de 4000 aeroports (METAR i TAF).

Les estacions disponibles són els punts grocs i vermells al mapa.

Posi el ratolí al punt desitjat per veure el nom de l'estació.

Feu clic per veure les observacions i els pronòstics meteorològics.

Per canviar el mapa: feu clic els botons verds amb una creu de color negre per apropar; al botó verd amb un guió per allunyar la imatge; o en les fletxes verdes per a mapes adjacents.


METAR-TAF: